Time;durP1;ratioP1;P1;durP2;ratioP2;P2;SDS_P1;SDS_P2;PMS_P1;PMS_P2;Temp;Humidity;BMP_temperature;BMP_pressure;BME280_temperature;BME280_humidity;BME280_pressure;Samples;Min_cycle;Max_cycle;Signal;HPM_P1;HPM_P2
2022/07/15 00:00:10;;;;;;;344.53;164.47;;;;;;;;;;4988727;28;20197;-49
2022/07/15 00:02:36;;;;;;;325.37;158.53;;;;;;;;;;4989284;28;20209;-48
2022/07/15 00:05:02;;;;;;;329.60;161.40;;;;;;;;;;4991225;28;20311;-48
2022/07/15 00:07:28;;;;;;;317.20;155.63;;;;;;;;;;4990969;28;20241;-49
2022/07/15 00:12:39;;;;;;;330.53;161.70;;;;;;;;;;4990987;28;20225;-48
2022/07/15 00:15:05;;;;;;;321.37;156.07;;;;;;;;;;4991619;28;20393;-48
2022/07/15 00:17:31;;;;;;;322.57;156.90;;;;;;;;;;4991002;28;20213;-49
2022/07/15 00:19:57;;;;;;;317.43;153.83;;;;;;;;;;4990934;28;20225;-48
2022/07/15 00:22:23;;;;;;;319.23;152.77;;;;;;;;;;4991275;28;20222;-48
2022/07/15 00:24:49;;;;;;;321.53;153.37;;;;;;;;;;4990840;28;20297;-48
2022/07/15 00:27:15;;;;;;;303.23;149.80;;;;;;;;;;4991238;28;20531;-49
2022/07/15 00:29:41;;;;;;;333.23;160.90;;;;;;;;;;4990887;28;20245;-48
2022/07/15 00:32:07;;;;;;;314.33;153.53;;;;;;;;;;4989859;28;20217;-49
2022/07/15 00:34:33;;;;;;;319.60;154.73;;;;;;;;;;4991060;28;20589;-48
2022/07/15 00:36:59;;;;;;;329.37;161.10;;;;;;;;;;4990591;28;20240;-49
2022/07/15 00:39:25;;;;;;;311.20;152.47;;;;;;;;;;4990577;28;20829;-48
2022/07/15 00:41:51;;;;;;;319.03;153.33;;;;;;;;;;4991377;28;20511;-49
2022/07/15 00:44:17;;;;;;;323.07;155.53;;;;;;;;;;4991183;28;20220;-49
2022/07/15 00:46:43;;;;;;;321.93;155.50;;;;;;;;;;4994741;28;20227;-49
2022/07/15 00:49:09;;;;;;;307.97;149.87;;;;;;;;;;4994834;28;20205;-48
2022/07/15 00:51:41;;;;;;;316.37;154.93;;;;;;;;;;4994948;28;20243;-48
2022/07/15 00:54:09;;;;;;;332.57;159.87;;;;;;;;;;4995100;28;20178;-48
2022/07/15 00:56:37;;;;;;;314.97;150.97;;;;;;;;;;4994544;28;20224;-48
2022/07/15 00:59:04;;;;;;;310.00;149.70;;;;;;;;;;4993240;28;20221;-48
2022/07/15 01:01:30;;;;;;;298.47;142.73;;;;;;;;;;4994412;28;20688;-48
2022/07/15 01:03:56;;;;;;;331.17;155.83;;;;;;;;;;4993921;28;20249;-48
2022/07/15 01:06:26;;;;;;;329.50;156.43;;;;;;;;;;4992851;28;20197;-48
2022/07/15 01:08:52;;;;;;;315.00;149.87;;;;;;;;;;4995159;28;20661;-48
2022/07/15 01:11:18;;;;;;;313.97;144.83;;;;;;;;;;4994414;28;20218;-49
2022/07/15 01:13:44;;;;;;;341.13;156.03;;;;;;;;;;4993645;28;20272;-48
2022/07/15 01:16:10;;;;;;;325.27;155.63;;;;;;;;;;4994235;28;20217;-49
2022/07/15 01:18:36;;;;;;;323.03;153.30;;;;;;;;;;4994160;28;20205;-49
2022/07/15 01:21:02;;;;;;;295.10;140.97;;;;;;;;;;4994841;28;20364;-48
2022/07/15 01:23:28;;;;;;;313.70;146.33;;;;;;;;;;4994440;28;20268;-49
2022/07/15 01:25:55;;;;;;;329.53;153.63;;;;;;;;;;4992527;28;20214;-48
2022/07/15 01:28:20;;;;;;;300.70;144.13;;;;;;;;;;4994080;28;20221;-48
2022/07/15 01:30:46;;;;;;;326.67;151.00;;;;;;;;;;4994017;28;20496;-49
2022/07/15 01:33:12;;;;;;;320.27;148.63;;;;;;;;;;4994521;28;20182;-48
2022/07/15 01:35:38;;;;;;;325.30;152.03;;;;;;;;;;4993854;28;20276;-48
2022/07/15 01:38:04;;;;;;;318.20;147.43;;;;;;;;;;4993934;28;20767;-48
2022/07/15 01:40:30;;;;;;;318.80;147.43;;;;;;;;;;4993730;28;20340;-48
2022/07/15 01:42:56;;;;;;;315.23;150.07;;;;;;;;;;4994013;28;20222;-49
2022/07/15 01:45:22;;;;;;;306.90;145.73;;;;;;;;;;4994369;28;20182;-48
2022/07/15 01:47:50;;;;;;;322.53;151.43;;;;;;;;;;4993756;28;20224;-50
2022/07/15 01:50:16;;;;;;;304.90;147.63;;;;;;;;;;4994241;28;20228;-48
2022/07/15 01:52:42;;;;;;;296.13;140.00;;;;;;;;;;4994923;28;20210;-50
2022/07/15 01:55:10;;;;;;;317.33;148.47;;;;;;;;;;4993681;28;20213;-49
2022/07/15 01:57:35;;;;;;;316.20;148.70;;;;;;;;;;4992847;28;20297;-48
2022/07/15 02:00:01;;;;;;;330.23;152.87;;;;;;;;;;4993580;28;20301;-49
2022/07/15 02:02:27;;;;;;;319.60;148.83;;;;;;;;;;4993413;28;20264;-48
2022/07/15 02:04:53;;;;;;;315.63;145.17;;;;;;;;;;4993726;28;20624;-48
2022/07/15 02:07:19;;;;;;;318.87;148.40;;;;;;;;;;4993329;28;20692;-49
2022/07/15 02:09:45;;;;;;;328.80;152.97;;;;;;;;;;4992973;28;20213;-48
2022/07/15 02:12:11;;;;;;;325.07;147.63;;;;;;;;;;4993948;28;20640;-47
2022/07/15 02:14:37;;;;;;;314.87;144.63;;;;;;;;;;4992994;28;20213;-48
2022/07/15 02:17:03;;;;;;;301.60;141.03;;;;;;;;;;4993313;28;20785;-48
2022/07/15 02:19:29;;;;;;;316.20;146.80;;;;;;;;;;4993167;28;20521;-48
2022/07/15 02:21:55;;;;;;;307.57;141.73;;;;;;;;;;4993230;28;20221;-48
2022/07/15 02:24:21;;;;;;;307.27;142.70;;;;;;;;;;4993665;28;20201;-48
2022/07/15 02:26:48;;;;;;;322.10;147.33;;;;;;;;;;4992894;28;20213;-48
2022/07/15 02:29:14;;;;;;;317.40;146.47;;;;;;;;;;4992827;28;20657;-48
2022/07/15 02:31:40;;;;;;;311.77;143.50;;;;;;;;;;4991734;28;20300;-48
2022/07/15 02:34:06;;;;;;;289.23;135.43;;;;;;;;;;4992797;28;20221;-48
2022/07/15 02:36:32;;;;;;;315.97;145.07;;;;;;;;;;4993296;28;20540;-48
2022/07/15 02:38:58;;;;;;;319.53;146.33;;;;;;;;;;4992625;28;20534;-48
2022/07/15 02:41:24;;;;;;;306.10;142.03;;;;;;;;;;4992952;28;20224;-49
2022/07/15 02:43:50;;;;;;;309.87;142.53;;;;;;;;;;4992955;28;20222;-48
2022/07/15 02:46:17;;;;;;;308.70;142.80;;;;;;;;;;4992175;28;20213;-48
2022/07/15 02:48:43;;;;;;;313.70;143.03;;;;;;;;;;4992587;28;20244;-48
2022/07/15 02:51:09;;;;;;;323.30;148.70;;;;;;;;;;4992754;28;20173;-48
2022/07/15 02:53:35;;;;;;;315.17;143.57;;;;;;;;;;4992892;28;20245;-48
2022/07/15 02:56:02;;;;;;;316.23;144.33;;;;;;;;;;5006304;28;20217;-48
2022/07/15 02:58:30;;;;;;;304.67;139.97;;;;;;;;;;5011809;28;20229;-48
2022/07/15 03:00:56;;;;;;;314.50;144.43;;;;;;;;;;5011959;28;20304;-48
2022/07/15 03:03:23;;;;;;;326.03;148.50;;;;;;;;;;5010482;28;20680;-48
2022/07/15 03:05:49;;;;;;;323.97;146.67;;;;;;;;;;5011672;28;20316;-48
2022/07/15 03:08:15;;;;;;;303.07;139.57;;;;;;;;;;5011246;28;20224;-48
2022/07/15 03:10:41;;;;;;;305.33;140.80;;;;;;;;;;5011779;28;20216;-48
2022/07/15 03:13:08;;;;;;;324.07;149.60;;;;;;;;;;5011942;28;20212;-49
2022/07/15 03:15:34;;;;;;;307.60;143.10;;;;;;;;;;5012320;28;20622;-49
2022/07/15 03:18:00;;;;;;;317.10;145.37;;;;;;;;;;5011982;28;20220;-48
2022/07/15 03:20:26;;;;;;;311.33;142.60;;;;;;;;;;5011852;28;20307;-48
2022/07/15 03:22:52;;;;;;;303.80;139.93;;;;;;;;;;5011548;28;20287;-48
2022/07/15 03:25:18;;;;;;;292.13;138.10;;;;;;;;;;5011774;28;20308;-48
2022/07/15 03:27:44;;;;;;;307.97;141.37;;;;;;;;;;5011616;28;20271;-48
2022/07/15 03:30:10;;;;;;;312.70;143.20;;;;;;;;;;5012087;28;20376;-48
2022/07/15 03:32:36;;;;;;;284.23;133.83;;;;;;;;;;5011797;28;20299;-48
2022/07/15 03:35:02;;;;;;;292.17;136.53;;;;;;;;;;5011908;28;20728;-48
2022/07/15 03:37:28;;;;;;;304.83;142.30;;;;;;;;;;5011352;28;20221;-48
2022/07/15 03:39:54;;;;;;;329.80;151.73;;;;;;;;;;5009253;28;20224;-48
2022/07/15 03:42:20;;;;;;;327.00;151.07;;;;;;;;;;5009398;28;20199;-48
2022/07/15 03:44:46;;;;;;;299.47;140.03;;;;;;;;;;5009097;28;20303;-48
2022/07/15 03:47:12;;;;;;;326.00;150.17;;;;;;;;;;5008549;28;20339;-48
2022/07/15 03:49:38;;;;;;;307.90;142.33;;;;;;;;;;5010009;28;20244;-48
2022/07/15 03:52:04;;;;;;;326.80;151.30;;;;;;;;;;5010643;28;20236;-48
2022/07/15 03:54:30;;;;;;;325.10;150.03;;;;;;;;;;5009478;28;20192;-49
2022/07/15 03:56:56;;;;;;;297.50;138.60;;;;;;;;;;5009648;28;20236;-49
2022/07/15 03:59:22;;;;;;;331.07;153.23;;;;;;;;;;5010840;28;20238;-49
2022/07/15 04:01:48;;;;;;;306.00;144.17;;;;;;;;;;5005807;28;20300;-49
2022/07/15 04:04:15;;;;;;;304.50;143.03;;;;;;;;;;4991836;28;20217;-49
2022/07/15 04:06:40;;;;;;;304.43;143.93;;;;;;;;;;4991294;28;20225;-49
2022/07/15 04:09:07;;;;;;;310.10;146.03;;;;;;;;;;4992598;28;20276;-50
2022/07/15 04:11:33;;;;;;;349.20;163.53;;;;;;;;;;4974795;28;20216;-50
2022/07/15 04:13:59;;;;;;;355.10;167.00;;;;;;;;;;4967836;28;20730;-51
2022/07/15 04:16:25;;;;;;;418.23;191.30;;;;;;;;;;4973558;28;20431;-50
2022/07/15 04:18:51;;;;;;;349.47;163.80;;;;;;;;;;4977942;28;20249;-50
2022/07/15 04:21:18;;;;;;;349.40;162.40;;;;;;;;;;4974771;28;20662;-50
2022/07/15 04:23:44;;;;;;;389.47;183.70;;;;;;;;;;4973498;28;20217;-50
2022/07/15 04:26:10;;;;;;;387.77;176.10;;;;;;;;;;4972173;28;20938;-50
2022/07/15 04:28:36;;;;;;;350.70;161.13;;;;;;;;;;4976788;28;20578;-50
2022/07/15 04:31:03;;;;;;;338.40;156.43;;;;;;;;;;4970569;28;20317;-50
2022/07/15 04:33:29;;;;;;;345.27;158.43;;;;;;;;;;4975668;28;20280;-50
2022/07/15 04:35:55;;;;;;;379.53;173.97;;;;;;;;;;4972414;28;20301;-50
2022/07/15 04:38:21;;;;;;;379.93;173.30;;;;;;;;;;4975063;28;20628;-50
2022/07/15 04:40:47;;;;;;;367.50;168.67;;;;;;;;;;4986501;28;20213;-50
2022/07/15 04:43:13;;;;;;;351.40;160.77;;;;;;;;;;4971300;28;20213;-50
2022/07/15 04:45:39;;;;;;;361.00;166.50;;;;;;;;;;4980280;28;20177;-50
2022/07/15 04:50:51;;;;;;;360.63;164.37;;;;;;;;;;4972414;28;20216;-50
2022/07/15 04:53:18;;;;;;;343.57;155.67;;;;;;;;;;4971210;28;20351;-50
2022/07/15 04:55:44;;;;;;;370.90;169.37;;;;;;;;;;4971406;28;20215;-50
2022/07/15 04:58:10;;;;;;;360.93;164.30;;;;;;;;;;4973387;28;20228;-50
2022/07/15 05:00:37;;;;;;;347.33;162.40;;;;;;;;;;4967725;28;20186;-52
2022/07/15 05:03:05;;;;;;;326.83;151.40;;;;;;;;;;4974430;28;20202;-52
2022/07/15 05:05:31;;;;;;;351.57;162.17;;;;;;;;;;4976158;28;20222;-52
2022/07/15 05:07:57;;;;;;;332.20;154.30;;;;;;;;;;4977523;28;20214;-52
2022/07/15 05:10:23;;;;;;;390.00;177.20;;;;;;;;;;4970817;28;20623;-51
2022/07/15 05:12:48;;;;;;;310.57;146.97;;;;;;;;;;4981370;28;20217;-52
2022/07/15 05:15:14;;;;;;;375.83;170.37;;;;;;;;;;4972192;28;20197;-52
2022/07/15 05:17:41;;;;;;;350.60;162.17;;;;;;;;;;4960133;28;20268;-52
2022/07/15 05:20:07;;;;;;;394.87;180.83;;;;;;;;;;4971957;28;20234;-52
2022/07/15 05:22:33;;;;;;;346.70;162.30;;;;;;;;;;4965635;28;20844;-52
2022/07/15 05:24:59;;;;;;;356.70;165.73;;;;;;;;;;4975490;28;20217;-52
2022/07/15 05:27:25;;;;;;;340.93;157.00;;;;;;;;;;4975805;28;20229;-52
2022/07/15 05:29:51;;;;;;;420.20;193.07;;;;;;;;;;4963677;28;21002;-52
2022/07/15 05:32:17;;;;;;;454.87;205.50;;;;;;;;;;4955976;28;20283;-52
2022/07/15 05:34:43;;;;;;;349.17;161.50;;;;;;;;;;4974029;28;20309;-52
2022/07/15 05:37:09;;;;;;;381.27;179.50;;;;;;;;;;4975941;28;20225;-52
2022/07/15 05:39:35;;;;;;;324.67;152.67;;;;;;;;;;4970475;28;20309;-52
2022/07/15 05:42:01;;;;;;;340.53;158.93;;;;;;;;;;4970292;28;20243;-52
2022/07/15 05:44:27;;;;;;;433.83;196.23;;;;;;;;;;4966775;28;20486;-52
2022/07/15 05:46:53;;;;;;;350.97;168.63;;;;;;;;;;4966706;28;20305;-52
2022/07/15 05:49:19;;;;;;;390.37;178.17;;;;;;;;;;4970285;28;20785;-52
2022/07/15 05:51:45;;;;;;;392.57;181.00;;;;;;;;;;4968934;28;20589;-52
2022/07/15 05:54:14;;;;;;;379.03;176.23;;;;;;;;;;4963467;28;20177;-52
2022/07/15 05:56:42;;;;;;;413.77;191.67;;;;;;;;;;4974134;28;20772;-52
2022/07/15 05:59:08;;;;;;;359.23;168.70;;;;;;;;;;4969250;28;20663;-52
2022/07/15 06:01:34;;;;;;;432.13;206.77;;;;;;;;;;4974938;28;20301;-52
2022/07/15 06:04:00;;;;;;;339.07;161.03;;;;;;;;;;4968820;28;20312;-52
2022/07/15 06:06:26;;;;;;;351.07;161.47;;;;;;;;;;4967119;28;20290;-52
2022/07/15 06:08:52;;;;;;;329.53;155.03;;;;;;;;;;4973459;28;20217;-52
2022/07/15 06:11:18;;;;;;;489.97;224.23;;;;;;;;;;4966301;28;20222;-52
2022/07/15 06:13:44;;;;;;;380.73;177.73;;;;;;;;;;4965599;28;20228;-52
2022/07/15 06:16:10;;;;;;;401.13;184.53;;;;;;;;;;4961342;28;20279;-52
2022/07/15 06:18:37;;;;;;;467.83;215.73;;;;;;;;;;4964302;28;20315;-52
2022/07/15 06:21:03;;;;;;;466.03;203.30;;;;;;;;;;4951254;28;20201;-52
2022/07/15 06:23:29;;;;;;;363.97;177.03;;;;;;;;;;4967243;28;20223;-51
2022/07/15 06:25:56;;;;;;;380.43;169.57;;;;;;;;;;4974378;28;20289;-49
2022/07/15 06:28:22;;;;;;;393.83;174.53;;;;;;;;;;4961051;28;20304;-49
2022/07/15 06:30:48;;;;;;;406.33;180.50;;;;;;;;;;4946777;28;20679;-49
2022/07/15 06:33:14;;;;;;;389.30;172.63;;;;;;;;;;4972382;28;20189;-50
2022/07/15 06:35:40;;;;;;;404.30;188.93;;;;;;;;;;4966889;28;20306;-49
2022/07/15 06:38:06;;;;;;;425.07;195.33;;;;;;;;;;4963290;28;20708;-49
2022/07/15 06:40:31;;;;;;;370.17;172.43;;;;;;;;;;4963458;28;20232;-49
2022/07/15 06:42:57;;;;;;;363.77;171.53;;;;;;;;;;4973545;28;20728;-49
2022/07/15 06:45:23;;;;;;;462.40;211.70;;;;;;;;;;4964138;28;20288;-49
2022/07/15 06:47:49;;;;;;;397.13;186.03;;;;;;;;;;4966794;28;20654;-51
2022/07/15 06:50:15;;;;;;;415.90;195.77;;;;;;;;;;4965970;28;20744;-49
2022/07/15 06:52:41;;;;;;;386.10;183.20;;;;;;;;;;4965019;28;20304;-49
2022/07/15 06:55:07;;;;;;;395.87;182.20;;;;;;;;;;4961402;28;20252;-46
2022/07/15 06:57:33;;;;;;;425.07;197.63;;;;;;;;;;4954453;28;20500;-46
2022/07/15 07:00:01;;;;;;;423.00;197.90;;;;;;;;;;4972675;28;20342;-47
2022/07/15 07:02:27;;;;;;;351.27;163.67;;;;;;;;;;4972597;28;20229;-47
2022/07/15 07:04:53;;;;;;;357.07;169.33;;;;;;;;;;4976471;28;20216;-47
2022/07/15 07:07:18;;;;;;;410.10;202.43;;;;;;;;;;4972451;28;20221;-50
2022/07/15 07:09:44;;;;;;;330.60;174.50;;;;;;;;;;4973554;28;20225;-50
2022/07/15 07:12:10;;;;;;;386.80;182.47;;;;;;;;;;4971736;28;20205;-50
2022/07/15 07:14:36;;;;;;;428.83;205.30;;;;;;;;;;4976283;28;20637;-50
2022/07/15 07:17:02;;;;;;;388.70;188.93;;;;;;;;;;4972622;28;20217;-50
2022/07/15 07:19:28;;;;;;;390.57;195.10;;;;;;;;;;4970771;28;20237;-50
2022/07/15 07:21:54;;;;;;;402.97;188.90;;;;;;;;;;4970554;28;20217;-50
2022/07/15 07:24:20;;;;;;;460.47;221.13;;;;;;;;;;4967161;28;20196;-51
2022/07/15 07:26:46;;;;;;;454.53;219.90;;;;;;;;;;4963796;28;20232;-50
2022/07/15 07:29:12;;;;;;;376.90;179.57;;;;;;;;;;4958159;28;20228;-51
2022/07/15 07:31:38;;;;;;;449.90;222.93;;;;;;;;;;4964352;28;20226;-51
2022/07/15 07:34:04;;;;;;;445.27;210.07;;;;;;;;;;4964593;28;20242;-51
2022/07/15 07:36:30;;;;;;;391.00;188.20;;;;;;;;;;4965298;28;20301;-51
2022/07/15 07:38:56;;;;;;;419.40;200.63;;;;;;;;;;4964303;28;20301;-51
2022/07/15 07:41:22;;;;;;;407.07;193.10;;;;;;;;;;4966752;28;20633;-50
2022/07/15 07:43:48;;;;;;;465.73;224.33;;;;;;;;;;4964997;28;20224;-51
2022/07/15 07:46:14;;;;;;;392.73;185.37;;;;;;;;;;4962916;28;20213;-51
2022/07/15 07:48:40;;;;;;;376.33;187.90;;;;;;;;;;4951301;28;20217;-51
2022/07/15 07:51:07;;;;;;;493.43;237.60;;;;;;;;;;4959825;28;20696;-52
2022/07/15 07:53:33;;;;;;;382.77;198.23;;;;;;;;;;4957606;28;20560;-52
2022/07/15 07:55:59;;;;;;;426.90;213.33;;;;;;;;;;4960425;28;20218;-53
2022/07/15 07:58:25;;;;;;;452.57;225.63;;;;;;;;;;4946048;28;20228;-53
2022/07/15 08:00:55;;;;;;;446.07;220.53;;;;;;;;;;4969953;28;20662;-52
2022/07/15 08:03:21;;;;;;;443.47;220.13;;;;;;;;;;4955445;28;20375;-52
2022/07/15 08:05:47;;;;;;;444.80;215.33;;;;;;;;;;4966572;28;20678;-52
2022/07/15 08:08:17;;;;;;;450.10;213.43;;;;;;;;;;4966157;28;20229;-53
2022/07/15 08:10:44;;;;;;;375.37;184.30;;;;;;;;;;4971977;28;20624;-53
2022/07/15 08:13:12;;;;;;;514.87;243.70;;;;;;;;;;4960621;28;20214;-53
2022/07/15 08:15:38;;;;;;;544.53;247.70;;;;;;;;;;4963871;28;20702;-53
2022/07/15 08:18:04;;;;;;;474.53;236.70;;;;;;;;;;4960784;28;20205;-52
2022/07/15 08:20:31;;;;;;;420.37;214.00;;;;;;;;;;4967903;28;20633;-53
2022/07/15 08:22:58;;;;;;;425.03;206.63;;;;;;;;;;4963903;28;20280;-53
2022/07/15 08:25:28;;;;;;;464.07;220.07;;;;;;;;;;4954982;28;20237;-53
2022/07/15 08:27:54;;;;;;;451.53;224.77;;;;;;;;;;4957965;28;20452;-53
2022/07/15 08:30:20;;;;;;;417.00;206.73;;;;;;;;;;4960952;28;20182;-53
2022/07/15 08:32:46;;;;;;;449.97;215.20;;;;;;;;;;4967722;28;20232;-52
2022/07/15 08:35:12;;;;;;;497.90;223.47;;;;;;;;;;4955063;28;20218;-52
2022/07/15 08:37:39;;;;;;;449.43;227.50;;;;;;;;;;4954893;28;20268;-53
2022/07/15 08:40:07;;;;;;;461.80;214.53;;;;;;;;;;4975811;28;20280;-53
2022/07/15 08:42:33;;;;;;;382.93;197.30;;;;;;;;;;4979583;28;20190;-52
2022/07/15 08:44:59;;;;;;;417.80;216.80;;;;;;;;;;4986348;28;20709;-52
2022/07/15 08:47:25;;;;;;;387.07;194.33;;;;;;;;;;4986380;28;20252;-52
2022/07/15 08:49:56;;;;;;;506.73;226.07;;;;;;;;;;4944144;28;20221;-53
2022/07/15 08:52:23;;;;;;;420.90;194.97;;;;;;;;;;4961478;28;21446;-53
2022/07/15 08:54:49;;;;;;;375.17;179.37;;;;;;;;;;4960354;28;20240;-53
2022/07/15 08:57:15;;;;;;;431.80;211.17;;;;;;;;;;4967177;28;20686;-52
2022/07/15 08:59:42;;;;;;;385.63;192.53;;;;;;;;;;4961711;28;20221;-53
2022/07/15 09:02:10;;;;;;;400.27;190.07;;;;;;;;;;4959019;28;20217;-53
2022/07/15 09:04:56;;;;;;;509.07;222.77;;;;;;;;;;4947936;28;20221;-53
2022/07/15 09:07:22;;;;;;;426.63;218.57;;;;;;;;;;4960059;28;20226;-53
2022/07/15 09:09:48;;;;;;;396.33;207.60;;;;;;;;;;4968239;28;20213;-53
2022/07/15 09:12:14;;;;;;;437.47;213.10;;;;;;;;;;4966296;28;20490;-53
2022/07/15 09:14:42;;;;;;;450.07;229.77;;;;;;;;;;4969516;28;20662;-53
2022/07/15 09:17:11;;;;;;;483.17;242.20;;;;;;;;;;4967633;28;20221;-54
2022/07/15 09:19:56;;;;;;;380.63;191.00;;;;;;;;;;4972982;28;20226;-53
2022/07/15 09:22:22;;;;;;;417.10;206.17;;;;;;;;;;4971116;28;20272;-53
2022/07/15 09:24:50;;;;;;;412.27;209.80;;;;;;;;;;4975253;28;20229;-53
2022/07/15 09:27:36;;;;;;;506.40;257.73;;;;;;;;;;4970707;28;20268;-53
2022/07/15 09:36:02;;;;;;;391.97;205.23;;;;;;;;;;4978614;28;20641;-53
2022/07/15 09:38:34;;;;;;;413.33;215.93;;;;;;;;;;4973003;28;20217;-53
2022/07/15 09:41:01;;;;;;;415.87;218.07;;;;;;;;;;4973581;28;20747;-53
2022/07/15 09:43:27;;;;;;;378.30;190.50;;;;;;;;;;4973678;28;20217;-53
2022/07/15 09:46:00;;;;;;;373.17;197.03;;;;;;;;;;4974764;28;20210;-53
2022/07/15 09:48:28;;;;;;;398.03;209.50;;;;;;;;;;4974339;28;20190;-53
2022/07/15 09:50:58;;;;;;;407.13;216.13;;;;;;;;;;4983763;28;20544;-53
2022/07/15 09:53:25;;;;;;;404.00;210.33;;;;;;;;;;4972463;28;20215;-53
2022/07/15 09:55:51;;;;;;;379.70;200.20;;;;;;;;;;4970904;28;20237;-53
2022/07/15 09:58:18;;;;;;;388.87;202.27;;;;;;;;;;4970466;28;20718;-53
2022/07/15 10:00:44;;;;;;;423.10;221.33;;;;;;;;;;4966034;28;20613;-53
2022/07/15 10:03:11;;;;;;;426.57;222.07;;;;;;;;;;4969628;28;20192;-53
2022/07/15 10:05:39;;;;;;;422.13;221.80;;;;;;;;;;4979356;28;20722;-53
2022/07/15 10:08:06;;;;;;;392.30;205.53;;;;;;;;;;4971403;28;20244;-53
2022/07/15 10:10:33;;;;;;;388.00;205.43;;;;;;;;;;5006571;28;20210;-53
2022/07/15 10:13:05;;;;;;;419.07;227.30;;;;;;;;;;4978558;28;20297;-53
2022/07/15 10:15:50;;;;;;;428.25;228.23;;;;;;;;;;4959317;28;21222;-53
2022/07/15 10:18:35;;;;;;;469.27;234.57;;;;;;;;;;4962613;28;20185;-53
2022/07/15 10:21:01;;;;;;;427.20;212.83;;;;;;;;;;4961397;28;20233;-53
2022/07/15 10:23:27;;;;;;;446.70;223.27;;;;;;;;;;4957800;28;20253;-53
2022/07/15 10:25:52;;;;;;;391.73;215.87;;;;;;;;;;4977117;28;20582;-53
2022/07/15 10:28:37;;;;;;;433.33;229.93;;;;;;;;;;4963512;28;20241;-53
2022/07/15 10:31:13;;;;;;;414.73;227.60;;;;;;;;;;4966519;28;20277;-53
2022/07/15 10:33:39;;;;;;;433.70;235.07;;;;;;;;;;4965082;28;20233;-53
2022/07/15 10:36:06;;;;;;;434.03;233.50;;;;;;;;;;4964463;28;20194;-53
2022/07/15 10:38:36;;;;;;;400.23;217.37;;;;;;;;;;4972695;28;20240;-53
2022/07/15 10:41:12;;;;;;;405.10;222.30;;;;;;;;;;4979774;28;20800;-53
2022/07/15 10:43:49;;;;;;;456.93;242.70;;;;;;;;;;4963287;28;20226;-53
2022/07/15 10:46:18;;;;;;;471.83;249.70;;;;;;;;;;4969447;28;20625;-53
2022/07/15 10:48:45;;;;;;;434.57;233.77;;;;;;;;;;4973999;28;20225;-53
2022/07/15 10:51:12;;;;;;;512.77;274.77;;;;;;;;;;4961059;28;21815;-53
2022/07/15 10:53:45;;;;;;;414.17;229.30;;;;;;;;;;4972426;28;20234;-53
2022/07/15 10:56:30;;;;;;;439.07;236.60;;;;;;;;;;4966492;28;20722;-53
2022/07/15 10:59:09;;;;;;;408.87;223.97;;;;;;;;;;4977172;28;20244;-53
2022/07/15 11:01:35;;;;;;;439.30;238.37;;;;;;;;;;4979747;28;20787;-53
2022/07/15 11:04:17;;;;;;;379.27;208.00;;;;;;;;;;4971205;28;20244;-53
2022/07/15 11:07:02;;;;;;;367.83;202.70;;;;;;;;;;4979736;28;20229;-53
2022/07/15 11:09:46;;;;;;;416.00;217.43;;;;;;;;;;4982098;28;22127;-53
2022/07/15 11:12:13;;;;;;;442.90;232.07;;;;;;;;;;4972297;28;20194;-53
2022/07/15 11:14:52;;;;;;;394.03;214.30;;;;;;;;;;4968229;28;20361;-53
2022/07/15 11:17:20;;;;;;;445.73;241.37;;;;;;;;;;4968659;28;20551;-53
2022/07/15 11:19:47;;;;;;;369.60;202.37;;;;;;;;;;4975109;28;20245;-53
2022/07/15 11:22:13;;;;;;;510.10;267.67;;;;;;;;;;4962050;28;20226;-53
2022/07/15 11:24:39;;;;;;;422.57;224.13;;;;;;;;;;4968711;28;20557;-53
2022/07/15 11:27:05;;;;;;;434.37;227.13;;;;;;;;;;4972314;28;20693;-53
2022/07/15 11:29:41;;;;;;;365.33;194.97;;;;;;;;;;4973703;28;20299;-53
2022/07/15 11:32:07;;;;;;;448.30;237.97;;;;;;;;;;4967871;28;20222;-53
2022/07/15 11:34:40;;;;;;;355.60;194.17;;;;;;;;;;4976252;28;20222;-53
2022/07/15 11:37:06;;;;;;;443.47;233.87;;;;;;;;;;4966776;28;20236;-53
2022/07/15 11:39:32;;;;;;;522.37;278.73;;;;;;;;;;4972288;28;20189;-53
2022/07/15 11:44:49;;;;;;;416.90;232.57;;;;;;;;;;4975962;28;20301;-53
2022/07/15 11:47:16;;;;;;;384.10;213.70;;;;;;;;;;4972286;28;20233;-53
2022/07/15 11:49:43;;;;;;;382.77;215.35;;;;;;;;;;4973640;28;20282;-53
2022/07/15 11:52:22;;;;;;;366.58;208.55;;;;;;;;;;4973656;28;20226;-53
2022/07/15 11:54:48;;;;;;;392.90;214.07;;;;;;;;;;4972910;28;20273;-53
2022/07/15 11:57:14;;;;;;;416.85;231.43;;;;;;;;;;4975254;28;20206;-53
2022/07/15 11:59:40;;;;;;;362.58;205.63;;;;;;;;;;4966116;28;20563;-53
2022/07/15 12:02:11;;;;;;;399.27;217.82;;;;;;;;;;4964152;28;20226;-53
2022/07/15 12:04:38;;;;;;;374.42;216.60;;;;;;;;;;4969896;28;20226;-53
2022/07/15 12:07:04;;;;;;;462.75;254.90;;;;;;;;;;4970889;28;20555;-53
2022/07/15 12:09:40;;;;;;;403.40;231.52;;;;;;;;;;4959162;28;20190;-53
2022/07/15 12:12:06;;;;;;;430.75;239.15;;;;;;;;;;4975191;28;20190;-54
2022/07/15 12:14:32;;;;;;;398.60;224.00;;;;;;;;;;4973824;28;21971;-53
2022/07/15 12:16:58;;;;;;;368.08;209.77;;;;;;;;;;4971773;28;20226;-53
2022/07/15 12:19:25;;;;;;;365.77;204.85;;;;;;;;;;4974785;28;20225;-53
2022/07/15 12:21:52;;;;;;;497.38;265.63;;;;;;;;;;4971419;28;20226;-53
2022/07/15 12:24:19;;;;;;;441.52;240.25;;;;;;;;;;4970498;28;20177;-53
2022/07/15 12:26:52;;;;;;;374.17;213.95;;;;;;;;;;4977363;28;20225;-53
2022/07/15 12:29:19;;;;;;;446.65;236.13;;;;;;;;;;4969132;28;20229;-53
2022/07/15 12:31:54;;;;;;;384.40;221.98;;;;;;;;;;4971042;28;20229;-53
2022/07/15 12:34:20;;;;;;;381.33;218.10;;;;;;;;;;4970392;28;20637;-53
2022/07/15 12:36:55;;;;;;;408.23;231.93;;;;;;;;;;4987871;28;20573;-53
2022/07/15 12:39:21;;;;;;;444.58;246.35;;;;;;;;;;4974230;28;20177;-53
2022/07/15 12:41:58;;;;;;;393.95;223.20;;;;;;;;;;4974488;28;20225;-53
2022/07/15 12:44:24;;;;;;;418.35;233.02;;;;;;;;;;4971650;28;20225;-53
2022/07/15 12:46:58;;;;;;;500.17;258.27;;;;;;;;;;4964936;28;20229;-52
2022/07/15 12:49:39;;;;;;;453.80;233.30;;;;;;;;;;4970804;28;20237;-53
2022/07/15 12:52:12;;;;;;;430.02;236.52;;;;;;;;;;4972306;28;20222;-53
2022/07/15 12:54:38;;;;;;;383.33;217.82;;;;;;;;;;4973374;28;21160;-53
2022/07/15 12:57:04;;;;;;;455.95;247.23;;;;;;;;;;4971809;28;20587;-53
2022/07/15 12:59:30;;;;;;;460.15;253.73;;;;;;;;;;4964639;28;20324;-53
2022/07/15 13:02:03;;;;;;;450.92;244.20;;;;;;;;;;4978023;28;20571;-52
2022/07/15 13:04:29;;;;;;;435.88;243.30;;;;;;;;;;4961679;28;20417;-52
2022/07/15 13:06:55;;;;;;;470.45;258.15;;;;;;;;;;4966802;28;20690;-53
2022/07/15 13:09:21;;;;;;;386.30;222.38;;;;;;;;;;4972191;28;20191;-53
2022/07/15 13:11:57;;;;;;;419.83;234.48;;;;;;;;;;4969329;28;20186;-53
2022/07/15 13:14:23;;;;;;;425.73;236.07;;;;;;;;;;4973238;28;20963;-53
2022/07/15 13:16:48;;;;;;;451.50;249.35;;;;;;;;;;4974597;28;20698;-53
2022/07/15 13:19:14;;;;;;;442.92;245.90;;;;;;;;;;4996481;28;20217;-53
2022/07/15 13:21:40;;;;;;;426.92;240.70;;;;;;;;;;4969174;28;20577;-53
2022/07/15 13:24:06;;;;;;;362.38;217.52;;;;;;;;;;4972799;28;20194;-53
2022/07/15 13:26:32;;;;;;;432.73;242.88;;;;;;;;;;4986277;28;20221;-53
2022/07/15 13:28:58;;;;;;;391.70;228.55;;;;;;;;;;4982396;28;20221;-53
2022/07/15 13:31:24;;;;;;;460.25;256.48;;;;;;;;;;4967641;28;20224;-53
2022/07/15 13:33:50;;;;;;;427.45;241.52;;;;;;;;;;4972991;28;20299;-53
2022/07/15 13:36:16;;;;;;;394.17;225.43;;;;;;;;;;4970360;28;20212;-53
2022/07/15 13:38:42;;;;;;;415.80;235.13;;;;;;;;;;4970333;28;22175;-53
2022/07/15 13:41:08;;;;;;;417.50;237.90;;;;;;;;;;4971953;28;20237;-53
2022/07/15 13:43:34;;;;;;;429.35;243.73;;;;;;;;;;4978753;28;20226;-53
2022/07/15 13:46:00;;;;;;;433.55;244.85;;;;;;;;;;4969928;28;20249;-53
2022/07/15 13:48:26;;;;;;;405.48;233.85;;;;;;;;;;4974237;28;20514;-53
2022/07/15 13:53:36;;;;;;;423.65;239.98;;;;;;;;;;4981151;28;20621;-53
2022/07/15 13:56:02;;;;;;;358.75;214.13;;;;;;;;;;4974723;28;20225;-53
2022/07/15 13:58:28;;;;;;;389.48;222.43;;;;;;;;;;4978607;28;20547;-53
2022/07/15 14:00:54;;;;;;;397.52;229.38;;;;;;;;;;4972569;28;20292;-53
2022/07/15 14:03:20;;;;;;;387.10;228.23;;;;;;;;;;4975155;28;20491;-53
2022/07/15 14:05:47;;;;;;;441.25;244.15;;;;;;;;;;4974843;28;20179;-53
2022/07/15 14:08:13;;;;;;;423.35;235.70;;;;;;;;;;4974002;28;20225;-53